Time;durP1;ratioP1;P1;durP2;ratioP2;P2;SDS_P1;SDS_P2;PMS_P1;PMS_P2;Temp;Humidity;BMP_temperature;BMP_pressure;BME280_temperature;BME280_humidity;BME280_pressure;Samples;Min_cycle;Max_cycle;Signal;HPM_P1;HPM_P2
2022/06/29 00:00:08;;;;;;;10.57;6.17;;;;;;;;;;5000866;28;20227;-67
2022/06/29 00:02:35;;;;;;;8.03;5.57;;;;;;;;;;5000118;28;20235;-70
2022/06/29 00:05:03;;;;;;;11.77;6.17;;;;;;;;;;5003640;28;20267;-67
2022/06/29 00:07:29;;;;;;;8.90;6.27;;;;;;;;;;4994586;28;20246;-67
2022/06/29 00:09:56;;;;;;;8.53;5.77;;;;;;;;;;4995419;28;20231;-67
2022/06/29 00:12:23;;;;;;;10.87;6.57;;;;;;;;;;5000475;28;20254;-67
2022/06/29 00:14:49;;;;;;;9.20;6.60;;;;;;;;;;5000954;28;20231;-67
2022/06/29 00:17:17;;;;;;;8.90;6.83;;;;;;;;;;4986695;28;20768;-68
2022/06/29 00:19:43;;;;;;;10.00;6.70;;;;;;;;;;5002884;28;20223;-67
2022/06/29 00:22:10;;;;;;;11.97;6.63;;;;;;;;;;5005416;28;20261;-67
2022/06/29 00:24:54;;;;;;;7.70;6.37;;;;;;;;;;5005296;28;20215;-67
2022/06/29 00:27:21;;;;;;;10.40;7.40;;;;;;;;;;4988048;28;20682;-67
2022/06/29 00:29:47;;;;;;;10.40;6.53;;;;;;;;;;5005399;28;20572;-67
2022/06/29 00:32:14;;;;;;;11.27;7.03;;;;;;;;;;5005324;28;20235;-67
2022/06/29 00:34:40;;;;;;;12.20;6.80;;;;;;;;;;5005442;28;20243;-68
2022/06/29 00:37:07;;;;;;;10.43;6.10;;;;;;;;;;4989368;28;20706;-68
2022/06/29 00:39:34;;;;;;;10.07;6.37;;;;;;;;;;5005839;28;20226;-67
2022/06/29 00:42:00;;;;;;;6.97;5.90;;;;;;;;;;5000729;28;20302;-68
2022/06/29 00:44:27;;;;;;;9.83;6.90;;;;;;;;;;5005163;28;20240;-67
2022/06/29 00:47:11;;;;;;;9.97;6.17;;;;;;;;;;4989457;28;20232;-70
2022/06/29 00:49:37;;;;;;;9.60;6.23;;;;;;;;;;5006017;28;20239;-69
2022/06/29 00:52:04;;;;;;;8.73;6.20;;;;;;;;;;5006326;28;20555;-67
2022/06/29 00:54:32;;;;;;;12.93;6.77;;;;;;;;;;5005105;28;20534;-67
2022/06/29 00:56:58;;;;;;;11.13;7.13;;;;;;;;;;4987149;28;20243;-70
2022/06/29 00:59:25;;;;;;;9.70;6.50;;;;;;;;;;4989661;28;20637;-67
2022/06/29 01:01:51;;;;;;;9.57;7.07;;;;;;;;;;4998726;28;20230;-68
2022/06/29 01:04:18;;;;;;;9.03;6.57;;;;;;;;;;5003768;28;20219;-67
2022/06/29 01:06:45;;;;;;;12.70;7.37;;;;;;;;;;5002405;28;20286;-68
2022/06/29 01:09:12;;;;;;;9.53;6.60;;;;;;;;;;4988403;28;20227;-67
2022/06/29 01:11:38;;;;;;;10.40;7.70;;;;;;;;;;4970741;28;20674;-67
2022/06/29 01:14:05;;;;;;;9.67;7.30;;;;;;;;;;5004812;28;20254;-67
2022/06/29 01:16:32;;;;;;;10.27;7.10;;;;;;;;;;5003474;28;20250;-67
2022/06/29 01:18:59;;;;;;;13.13;7.87;;;;;;;;;;5005810;28;20716;-67
2022/06/29 01:21:25;;;;;;;11.63;8.07;;;;;;;;;;4990908;28;20228;-67
2022/06/29 01:23:52;;;;;;;10.63;8.17;;;;;;;;;;4988800;28;20317;-67
2022/06/29 01:26:18;;;;;;;11.87;7.80;;;;;;;;;;4999956;28;20236;-67
2022/06/29 01:28:46;;;;;;;28.97;9.17;;;;;;;;;;5003100;28;20265;-67
2022/06/29 01:31:14;;;;;;;11.30;7.77;;;;;;;;;;4988744;28;20306;-68
2022/06/29 01:33:40;;;;;;;14.10;7.97;;;;;;;;;;4987583;28;20253;-67
2022/06/29 01:36:07;;;;;;;14.73;8.20;;;;;;;;;;5003906;28;20231;-67
2022/06/29 01:38:36;;;;;;;12.50;7.40;;;;;;;;;;4973016;28;21714;-68
2022/06/29 01:41:08;;;;;;;14.20;7.77;;;;;;;;;;4986459;28;20227;-67
2022/06/29 01:43:34;;;;;;;11.50;8.13;;;;;;;;;;5002133;28;20231;-68
2022/06/29 01:46:01;;;;;;;10.33;8.00;;;;;;;;;;5002124;28;20674;-68
2022/06/29 01:48:28;;;;;;;10.50;7.97;;;;;;;;;;4986386;28;20235;-68
2022/06/29 01:50:55;;;;;;;11.67;8.27;;;;;;;;;;5004013;28;20247;-67
2022/06/29 01:53:22;;;;;;;10.63;7.63;;;;;;;;;;4997924;28;20285;-67
2022/06/29 01:55:50;;;;;;;9.53;7.23;;;;;;;;;;4993945;28;20236;-68
2022/06/29 01:58:16;;;;;;;8.53;7.37;;;;;;;;;;4999296;28;20686;-67
2022/06/29 02:00:43;;;;;;;10.17;8.00;;;;;;;;;;5001596;28;20231;-68
2022/06/29 02:03:13;;;;;;;9.43;7.73;;;;;;;;;;5005204;28;20247;-68
2022/06/29 02:05:39;;;;;;;10.50;7.57;;;;;;;;;;4990037;28;20289;-68
2022/06/29 02:08:06;;;;;;;11.83;7.57;;;;;;;;;;5005226;28;20639;-67
2022/06/29 02:10:32;;;;;;;10.53;7.57;;;;;;;;;;4989139;28;20704;-68
2022/06/29 02:13:17;;;;;;;10.70;7.60;;;;;;;;;;4990133;28;20242;-68
2022/06/29 02:15:43;;;;;;;10.47;7.63;;;;;;;;;;5003185;28;20267;-68
2022/06/29 02:18:10;;;;;;;10.03;7.50;;;;;;;;;;5005412;28;20215;-67
2022/06/29 02:20:37;;;;;;;11.20;8.23;;;;;;;;;;5001526;28;20223;-68
2022/06/29 02:23:03;;;;;;;10.13;7.60;;;;;;;;;;5002574;28;20235;-68
2022/06/29 02:25:30;;;;;;;8.80;7.30;;;;;;;;;;5004618;28;20219;-68
2022/06/29 02:27:57;;;;;;;10.83;7.60;;;;;;;;;;5006091;28;20234;-67
2022/06/29 02:34:43;;;;;;;10.13;7.23;;;;;;;;;;4985650;28;20563;-68
2022/06/29 02:35:56;;;;;;;10.97;7.33;;;;;;;;;;5001994;28;20247;-68
2022/06/29 02:38:22;;;;;;;14.27;7.00;;;;;;;;;;5004703;28;20310;-67
2022/06/29 02:40:49;;;;;;;10.23;6.63;;;;;;;;;;4985310;28;20395;-68
2022/06/29 02:43:16;;;;;;;8.83;6.90;;;;;;;;;;5004179;28;20231;-67
2022/06/29 02:45:42;;;;;;;9.50;6.80;;;;;;;;;;5002074;28;20235;-68
2022/06/29 02:48:09;;;;;;;12.10;7.10;;;;;;;;;;4997288;28;20509;-69
2022/06/29 02:50:36;;;;;;;12.73;6.63;;;;;;;;;;4980351;28;215917;-70
2022/06/29 02:53:03;;;;;;;10.43;6.40;;;;;;;;;;4993526;28;26889;-71
2022/06/29 02:55:30;;;;;;;9.90;7.07;;;;;;;;;;4948731;28;20286;-68
2022/06/29 02:57:56;;;;;;;8.90;6.90;;;;;;;;;;4956062;28;20877;-68
2022/06/29 03:00:23;;;;;;;11.83;7.60;;;;;;;;;;4971767;28;20223;-68
2022/06/29 03:02:50;;;;;;;10.63;7.00;;;;;;;;;;4953005;28;20242;-69
2022/06/29 03:05:16;;;;;;;9.00;7.50;;;;;;;;;;4964930;28;20239;-70
2022/06/29 03:07:43;;;;;;;11.07;7.47;;;;;;;;;;4954172;28;20707;-70
2022/06/29 03:10:10;;;;;;;11.10;7.73;;;;;;;;;;4956038;28;20234;-70
2022/06/29 03:12:37;;;;;;;11.47;7.50;;;;;;;;;;4967709;28;20227;-70
2022/06/29 03:15:04;;;;;;;9.57;6.60;;;;;;;;;;4965044;28;20229;-72
2022/06/29 03:17:32;;;;;;;9.90;7.07;;;;;;;;;;4968439;28;20422;-69
2022/06/29 03:19:59;;;;;;;10.13;6.90;;;;;;;;;;4961882;28;214640;-69
2022/06/29 03:22:46;;;;;;;8.73;6.43;;;;;;;;;;4973288;28;20267;-68
2022/06/29 03:25:13;;;;;;;9.57;6.73;;;;;;;;;;4967370;28;20228;-68
2022/06/29 03:27:39;;;;;;;9.77;6.80;;;;;;;;;;4984665;28;20336;-68
2022/06/29 03:30:06;;;;;;;9.67;6.47;;;;;;;;;;4969834;28;20239;-68
2022/06/29 03:32:33;;;;;;;13.63;6.47;;;;;;;;;;4964324;28;20231;-68
2022/06/29 03:35:00;;;;;;;9.37;6.27;;;;;;;;;;4984395;28;20239;-67
2022/06/29 03:37:26;;;;;;;10.40;6.23;;;;;;;;;;4981973;28;20239;-68
2022/06/29 03:39:53;;;;;;;8.07;6.47;;;;;;;;;;4984000;28;20235;-67
2022/06/29 03:42:19;;;;;;;11.23;6.30;;;;;;;;;;4982019;28;20231;-68
2022/06/29 03:44:46;;;;;;;8.60;6.60;;;;;;;;;;4982592;28;33578;-67
2022/06/29 03:47:13;;;;;;;8.00;6.40;;;;;;;;;;4967036;28;20575;-71
2022/06/29 03:49:39;;;;;;;9.37;6.97;;;;;;;;;;4983278;28;20228;-67
2022/06/29 03:52:06;;;;;;;12.33;6.87;;;;;;;;;;4982699;28;20219;-68
2022/06/29 03:54:33;;;;;;;8.47;6.70;;;;;;;;;;4995310;28;20238;-68
2022/06/29 03:56:59;;;;;;;8.17;6.10;;;;;;;;;;5005441;28;20226;-68
2022/06/29 03:59:26;;;;;;;9.30;6.40;;;;;;;;;;5006654;28;20281;-68
2022/06/29 04:01:52;;;;;;;11.43;6.20;;;;;;;;;;5004794;28;20238;-70
2022/06/29 04:04:19;;;;;;;8.80;6.33;;;;;;;;;;5006165;28;20235;-70
2022/06/29 04:06:46;;;;;;;8.87;5.87;;;;;;;;;;5004952;28;20231;-73
2022/06/29 04:09:12;;;;;;;8.37;5.30;;;;;;;;;;4992699;28;20326;-74
2022/06/29 04:11:49;;;;;;;8.50;5.47;;;;;;;;;;4964476;28;31667;-72
2022/06/29 04:14:17;;;;;;;9.87;5.97;;;;;;;;;;4995148;28;20223;-72
2022/06/29 04:16:44;;;;;;;7.70;5.57;;;;;;;;;;4988743;28;20247;-73
2022/06/29 04:19:11;;;;;;;8.17;5.33;;;;;;;;;;4995239;28;20233;-73
2022/06/29 04:21:37;;;;;;;7.37;5.53;;;;;;;;;;4981293;28;20618;-71
2022/06/29 04:24:05;;;;;;;10.27;5.23;;;;;;;;;;5006385;28;22783;-71
2022/06/29 04:26:32;;;;;;;8.20;5.90;;;;;;;;;;4997898;28;20235;-70
2022/06/29 04:29:00;;;;;;;8.23;5.23;;;;;;;;;;4974596;28;219979;-74
2022/06/29 04:31:26;;;;;;;7.50;5.07;;;;;;;;;;4944876;28;20224;-73
2022/06/29 04:33:53;;;;;;;7.23;5.43;;;;;;;;;;4993904;28;20231;-73
2022/06/29 04:36:21;;;;;;;6.30;4.83;;;;;;;;;;4980363;28;20314;-68
2022/06/29 04:38:48;;;;;;;5.77;4.33;;;;;;;;;;4996913;28;20230;-67
2022/06/29 04:41:15;;;;;;;5.03;4.17;;;;;;;;;;4998129;28;21848;-67
2022/06/29 04:43:42;;;;;;;5.20;4.53;;;;;;;;;;4976263;28;30215;-67
2022/06/29 04:46:21;;;;;;;6.07;4.73;;;;;;;;;;4997104;28;20315;-65
2022/06/29 04:48:56;;;;;;;10.70;5.53;;;;;;;;;;4997607;28;20234;-66
2022/06/29 04:51:23;;;;;;;15.43;5.40;;;;;;;;;;4969477;28;20302;-68
2022/06/29 04:53:54;;;;;;;6.83;4.60;;;;;;;;;;4967732;28;20236;-71
2022/06/29 04:56:21;;;;;;;8.07;4.50;;;;;;;;;;5000033;28;20270;-67
2022/06/29 04:58:48;;;;;;;5.77;4.30;;;;;;;;;;4998482;28;20666;-69
2022/06/29 05:01:15;;;;;;;4.03;3.63;;;;;;;;;;4979864;28;20230;-69
2022/06/29 05:03:43;;;;;;;7.47;4.20;;;;;;;;;;4982441;28;20232;-69
2022/06/29 05:06:10;;;;;;;5.70;3.83;;;;;;;;;;4990475;28;20239;-68
2022/06/29 05:08:36;;;;;;;5.87;4.20;;;;;;;;;;4996106;28;20227;-69
2022/06/29 05:11:03;;;;;;;5.00;3.37;;;;;;;;;;4998100;28;20310;-69
2022/06/29 05:13:30;;;;;;;6.57;3.73;;;;;;;;;;4994076;28;20231;-69
2022/06/29 05:15:57;;;;;;;5.73;3.60;;;;;;;;;;4995726;28;20247;-69
2022/06/29 05:18:24;;;;;;;6.63;3.87;;;;;;;;;;4968319;28;20686;-68
2022/06/29 05:20:55;;;;;;;6.07;3.50;;;;;;;;;;4980660;28;20324;-69
2022/06/29 05:23:22;;;;;;;7.07;3.20;;;;;;;;;;4997026;28;20293;-69
2022/06/29 05:26:06;;;;;;;3.53;3.20;;;;;;;;;;4996503;28;20254;-68
2022/06/29 05:28:33;;;;;;;7.57;3.40;;;;;;;;;;4975760;28;20851;-68
2022/06/29 05:31:01;;;;;;;5.13;3.30;;;;;;;;;;4995991;28;20383;-68
2022/06/29 05:33:36;;;;;;;3.77;3.07;;;;;;;;;;4997879;28;20314;-70
2022/06/29 05:36:07;;;;;;;5.83;3.33;;;;;;;;;;4995878;28;20597;-69
2022/06/29 05:38:34;;;;;;;5.60;3.53;;;;;;;;;;4997284;28;20231;-68
2022/06/29 05:41:18;;;;;;;5.17;3.90;;;;;;;;;;4976674;28;20223;-68
2022/06/29 05:43:49;;;;;;;5.50;3.53;;;;;;;;;;4991295;28;20318;-68
2022/06/29 05:46:18;;;;;;;6.00;3.53;;;;;;;;;;4994298;28;20242;-68
2022/06/29 05:48:45;;;;;;;4.03;3.23;;;;;;;;;;4998199;28;20245;-69
2022/06/29 05:51:12;;;;;;;4.57;3.00;;;;;;;;;;4980391;28;20798;-69
2022/06/29 05:53:38;;;;;;;6.13;2.87;;;;;;;;;;4998220;28;20317;-70
2022/06/29 05:56:06;;;;;;;5.40;2.60;;;;;;;;;;4996119;28;20234;-69
2022/06/29 05:58:34;;;;;;;4.03;2.43;;;;;;;;;;4997432;28;20310;-69
2022/06/29 06:05:31;;;;;;;4.93;2.53;;;;;;;;;;4980865;28;20299;-70
2022/06/29 06:09:02;;;;;;;4.43;2.63;;;;;;;;;;4990463;28;20223;-69
2022/06/29 06:11:29;;;;;;;3.17;2.37;;;;;;;;;;4974155;28;20234;-70
2022/06/29 06:13:56;;;;;;;4.13;2.63;;;;;;;;;;4985898;28;20273;-67
2022/06/29 06:16:22;;;;;;;4.87;2.33;;;;;;;;;;4995722;28;20747;-68
2022/06/29 06:19:06;;;;;;;9.20;2.77;;;;;;;;;;4971571;28;20907;-68
2022/06/29 06:21:35;;;;;;;5.50;2.37;;;;;;;;;;4996079;28;20307;-69
2022/06/29 06:24:02;;;;;;;3.93;2.37;;;;;;;;;;4994269;28;20348;-70
2022/06/29 06:26:29;;;;;;;5.40;2.20;;;;;;;;;;4996669;28;20266;-68
2022/06/29 06:28:56;;;;;;;3.93;2.57;;;;;;;;;;4995402;28;20245;-69
2022/06/29 06:31:26;;;;;;;4.80;2.40;;;;;;;;;;4996907;28;20238;-68
2022/06/29 06:33:54;;;;;;;4.50;2.13;;;;;;;;;;4966780;28;20226;-69
2022/06/29 06:36:21;;;;;;;5.27;2.30;;;;;;;;;;4990756;28;20884;-69
2022/06/29 06:38:48;;;;;;;2.27;2.07;;;;;;;;;;4978582;28;20238;-68
2022/06/29 06:41:25;;;;;;;2.90;2.30;;;;;;;;;;4981923;28;20230;-68
2022/06/29 06:43:53;;;;;;;3.10;2.20;;;;;;;;;;4996585;28;20249;-68
2022/06/29 06:46:20;;;;;;;2.73;2.37;;;;;;;;;;4994540;28;20262;-68
2022/06/29 06:48:49;;;;;;;2.70;2.30;;;;;;;;;;4995841;28;20227;-67
2022/06/29 06:51:17;;;;;;;3.50;2.53;;;;;;;;;;4994769;28;20232;-68
2022/06/29 06:53:44;;;;;;;3.47;2.40;;;;;;;;;;4997053;28;20266;-68
2022/06/29 06:56:11;;;;;;;4.57;2.50;;;;;;;;;;4995236;28;20223;-69
2022/06/29 06:58:38;;;;;;;2.63;2.43;;;;;;;;;;4996053;28;20273;-67
2022/06/29 07:01:14;;;;;;;3.43;2.60;;;;;;;;;;4976594;28;25042;-68
2022/06/29 07:03:41;;;;;;;3.43;2.30;;;;;;;;;;4995812;28;32775;-69
2022/06/29 07:06:08;;;;;;;5.57;2.50;;;;;;;;;;4966653;28;213175;-67
2022/06/29 07:08:35;;;;;;;3.23;2.47;;;;;;;;;;4996313;28;20253;-68
2022/06/29 07:11:03;;;;;;;4.50;2.27;;;;;;;;;;4992747;28;23162;-68
2022/06/29 07:13:30;;;;;;;5.20;2.50;;;;;;;;;;4951113;28;22730;-68
2022/06/29 07:15:56;;;;;;;5.77;2.67;;;;;;;;;;4994289;28;20235;-70
2022/06/29 07:18:40;;;;;;;3.43;2.33;;;;;;;;;;4992785;28;20215;-68
2022/06/29 07:21:07;;;;;;;4.80;2.30;;;;;;;;;;4995133;28;20231;-67
2022/06/29 07:23:51;;;;;;;3.07;2.60;;;;;;;;;;4993974;28;21640;-67
2022/06/29 07:26:18;;;;;;;4.13;2.27;;;;;;;;;;4980663;28;20230;-68
2022/06/29 07:28:45;;;;;;;11.37;2.90;;;;;;;;;;4997351;28;20357;-66
2022/06/29 07:31:11;;;;;;;5.27;2.70;;;;;;;;;;4994089;28;20235;-67
2022/06/29 07:33:38;;;;;;;4.97;2.70;;;;;;;;;;5000660;28;20230;-67
2022/06/29 07:36:05;;;;;;;2.97;2.40;;;;;;;;;;4997157;28;20231;-67
2022/06/29 07:38:32;;;;;;;5.37;2.53;;;;;;;;;;5000986;28;20247;-66
2022/06/29 07:41:00;;;;;;;12.53;3.13;;;;;;;;;;4995708;28;20234;-68
2022/06/29 07:43:27;;;;;;;3.53;2.50;;;;;;;;;;4995486;28;20223;-68
2022/06/29 07:45:58;;;;;;;3.87;2.40;;;;;;;;;;4999759;28;20230;-67
2022/06/29 07:48:25;;;;;;;14.23;3.53;;;;;;;;;;4996383;28;20290;-68
2022/06/29 07:50:53;;;;;;;10.37;3.10;;;;;;;;;;5000293;28;20353;-68
2022/06/29 07:53:20;;;;;;;7.97;2.80;;;;;;;;;;4997436;28;20696;-67
2022/06/29 07:55:47;;;;;;;9.13;2.70;;;;;;;;;;4999145;28;20231;-68
2022/06/29 07:58:14;;;;;;;4.63;2.30;;;;;;;;;;4993656;28;20617;-68
2022/06/29 08:00:41;;;;;;;2.97;2.10;;;;;;;;;;4991257;28;21149;-68
2022/06/29 08:03:08;;;;;;;2.83;2.50;;;;;;;;;;4958045;28;20258;-69
2022/06/29 08:05:35;;;;;;;4.33;2.83;;;;;;;;;;4982741;28;29027;-69
2022/06/29 08:08:02;;;;;;;3.60;2.57;;;;;;;;;;4998087;28;20262;-67
2022/06/29 08:10:29;;;;;;;5.60;2.73;;;;;;;;;;4997070;28;20280;-69
2022/06/29 08:12:56;;;;;;;5.73;2.90;;;;;;;;;;4998201;28;20263;-66
2022/06/29 08:15:24;;;;;;;2.80;2.60;;;;;;;;;;4994728;28;20226;-68
2022/06/29 08:17:52;;;;;;;7.07;2.80;;;;;;;;;;4988608;28;20343;-71
2022/06/29 08:20:19;;;;;;;8.17;2.80;;;;;;;;;;4983410;28;20231;-59
2022/06/29 08:22:46;;;;;;;2.53;2.30;;;;;;;;;;4993268;28;20236;-59
2022/06/29 08:25:13;;;;;;;5.43;2.70;;;;;;;;;;5004564;28;20227;-60
2022/06/29 08:27:39;;;;;;;5.13;2.43;;;;;;;;;;5007342;28;20706;-60
2022/06/29 08:30:10;;;;;;;5.47;2.50;;;;;;;;;;5005234;28;20253;-60
2022/06/29 08:32:39;;;;;;;6.63;3.13;;;;;;;;;;5005095;28;20241;-63
2022/06/29 08:35:06;;;;;;;4.87;2.90;;;;;;;;;;5007118;28;20235;-60
2022/06/29 08:37:36;;;;;;;4.10;2.67;;;;;;;;;;5005650;28;20833;-60
2022/06/29 08:40:04;;;;;;;2.80;2.53;;;;;;;;;;5005203;28;20961;-61
2022/06/29 08:42:31;;;;;;;3.70;2.30;;;;;;;;;;5005590;28;20317;-60
2022/06/29 08:45:00;;;;;;;3.57;2.67;;;;;;;;;;4944188;28;20241;-60
2022/06/29 08:47:27;;;;;;;4.73;2.90;;;;;;;;;;5005189;28;20813;-59
2022/06/29 08:49:54;;;;;;;5.43;2.40;;;;;;;;;;5007515;28;20223;-61
2022/06/29 08:52:21;;;;;;;11.43;3.50;;;;;;;;;;5004622;28;20237;-59
2022/06/29 08:54:48;;;;;;;6.33;2.70;;;;;;;;;;5003575;28;22729;-69
2022/06/29 08:57:15;;;;;;;2.67;2.40;;;;;;;;;;4998600;28;20231;-69
2022/06/29 08:59:43;;;;;;;4.87;2.30;;;;;;;;;;5003999;28;20227;-69
2022/06/29 09:02:26;;;;;;;4.93;2.60;;;;;;;;;;4974448;28;20233;-70
2022/06/29 09:04:54;;;;;;;13.13;2.70;;;;;;;;;;4978376;28;231909;-71
2022/06/29 09:07:21;;;;;;;2.77;2.50;;;;;;;;;;4985536;28;20215;-72
2022/06/29 09:10:01;;;;;;;2.97;2.00;;;;;;;;;;4984908;28;217789;-76
2022/06/29 09:12:28;;;;;;;4.33;2.27;;;;;;;;;;4999271;28;20259;-73
2022/06/29 09:14:55;;;;;;;3.20;2.20;;;;;;;;;;4981494;28;31168;-73
2022/06/29 09:17:22;;;;;;;5.30;2.50;;;;;;;;;;4974886;28;20396;-74
2022/06/29 09:19:49;;;;;;;4.90;2.57;;;;;;;;;;4980959;28;20215;-73
2022/06/29 09:22:29;;;;;;;4.33;2.37;;;;;;;;;;4982444;28;215242;-72
2022/06/29 09:24:58;;;;;;;3.20;2.33;;;;;;;;;;4983104;28;20243;-71
2022/06/29 09:27:43;;;;;;;4.10;2.40;;;;;;;;;;4994669;28;20333;-70
2022/06/29 09:30:11;;;;;;;4.07;2.40;;;;;;;;;;4996680;28;20246;-69
2022/06/29 09:32:37;;;;;;;4.10;2.50;;;;;;;;;;4968603;28;23268;-69
2022/06/29 09:35:04;;;;;;;4.37;2.50;;;;;;;;;;4995079;28;20322;-69
2022/06/29 09:37:31;;;;;;;4.63;2.40;;;;;;;;;;4997226;28;20235;-69
2022/06/29 09:39:58;;;;;;;5.00;2.40;;;;;;;;;;4972419;28;20238;-68
2022/06/29 09:42:26;;;;;;;3.10;2.50;;;;;;;;;;4995766;28;20224;-70
2022/06/29 09:44:53;;;;;;;3.50;2.30;;;;;;;;;;4976384;28;23155;-67
2022/06/29 09:47:20;;;;;;;3.37;2.30;;;;;;;;;;4982707;28;20231;-70
2022/06/29 09:49:59;;;;;;;5.63;2.30;;;;;;;;;;5002486;28;20258;-68
2022/06/29 09:52:26;;;;;;;3.17;2.37;;;;;;;;;;4972715;28;23266;-70
2022/06/29 09:54:56;;;;;;;2.33;2.13;;;;;;;;;;4977081;28;20246;-71
2022/06/29 09:57:32;;;;;;;6.40;2.53;;;;;;;;;;4985212;28;20235;-72
2022/06/29 10:02:52;;;;;;;5.40;2.60;;;;;;;;;;4994434;28;20253;-72
2022/06/29 10:05:58;;;;;;;3.63;3.00;;;;;;;;;;4995141;28;20250;-71
2022/06/29 10:08:26;;;;;;;9.47;3.43;;;;;;;;;;4992447;28;20238;-72
2022/06/29 10:10:56;;;;;;;4.53;2.90;;;;;;;;;;4993910;28;22853;-73
2022/06/29 10:13:39;;;;;;;3.17;2.70;;;;;;;;;;4996040;28;20694;-70
2022/06/29 10:16:08;;;;;;;5.70;2.90;;;;;;;;;;4989508;28;20345;-71
2022/06/29 10:18:54;;;;;;;5.03;2.97;;;;;;;;;;4991222;28;20243;-70
2022/06/29 10:21:40;;;;;;;8.60;3.27;;;;;;;;;;4991553;28;20304;-70
2022/06/29 10:24:06;;;;;;;4.20;2.80;;;;;;;;;;4976057;28;20714;-72
2022/06/29 10:26:37;;;;;;;4.63;3.07;;;;;;;;;;4968783;28;20312;-70
2022/06/29 10:29:09;;;;;;;7.33;2.70;;;;;;;;;;4993783;28;20239;-70
2022/06/29 10:31:58;;;;;;;6.07;3.10;;;;;;;;;;4993048;28;21917;-69
2022/06/29 10:34:31;;;;;;;5.20;2.70;;;;;;;;;;4996491;28;20224;-72
2022/06/29 10:37:15;;;;;;;6.67;2.63;;;;;;;;;;4993262;28;30544;-61
2022/06/29 10:39:41;;;;;;;5.37;2.50;;;;;;;;;;4991394;28;20700;-61
2022/06/29 10:45:20;;;;;;;4.03;2.90;;;;;;;;;;4981245;28;20310;-79
2022/06/29 10:48:06;;;;;;;4.47;2.90;;;;;;;;;;4987688;28;222327;-69
2022/06/29 10:50:34;;;;;;;6.97;2.90;;;;;;;;;;4990193;28;20216;-69
2022/06/29 10:53:01;;;;;;;5.27;3.03;;;;;;;;;;4930090;28;21673;-72
2022/06/29 10:55:28;;;;;;;10.17;3.57;;;;;;;;;;4964065;28;20238;-74
2022/06/29 10:57:55;;;;;;;6.83;3.33;;;;;;;;;;4962520;28;29014;-73
2022/06/29 11:00:23;;;;;;;4.10;2.70;;;;;;;;;;4949304;28;233210;-71
2022/06/29 11:02:50;;;;;;;4.30;2.73;;;;;;;;;;4959977;28;20235;-72
2022/06/29 11:05:17;;;;;;;3.70;2.53;;;;;;;;;;4979509;28;20713;-69
2022/06/29 11:13:24;;;;;;;5.13;2.60;;;;;;;;;;4992647;28;20231;-77
2022/06/29 11:15:51;;;;;;;4.53;2.50;;;;;;;;;;4979305;28;213862;-72
2022/06/29 11:18:37;;;;;;;2.87;2.40;;;;;;;;;;4974344;28;20283;-71
2022/06/29 11:21:04;;;;;;;3.87;2.57;;;;;;;;;;4992389;28;22646;-69
2022/06/29 11:23:32;;;;;;;5.53;2.50;;;;;;;;;;4996979;28;20284;-69
2022/06/29 11:25:59;;;;;;;4.43;2.73;;;;;;;;;;4981057;28;20242;-68
2022/06/29 11:28:29;;;;;;;4.63;2.60;;;;;;;;;;4978897;28;20818;-69
2022/06/29 11:31:08;;;;;;;7.13;2.80;;;;;;;;;;4978451;28;214877;-66
2022/06/29 11:33:39;;;;;;;4.77;2.57;;;;;;;;;;4974123;28;20233;-70
2022/06/29 11:36:07;;;;;;;6.87;3.17;;;;;;;;;;4995520;28;20240;-72
2022/06/29 11:38:40;;;;;;;4.70;3.23;;;;;;;;;;4965252;28;20231;-72
2022/06/29 11:41:10;;;;;;;5.63;3.00;;;;;;;;;;4964327;28;20234;-71
2022/06/29 11:43:58;;;;;;;5.20;3.20;;;;;;;;;;4995821;28;25629;-67
2022/06/29 11:46:27;;;;;;;6.97;3.13;;;;;;;;;;4996211;28;20238;-68
2022/06/29 11:51:49;;;;;;;7.03;3.00;;;;;;;;;;4999905;28;20234;-69
2022/06/29 11:54:16;;;;;;;7.23;3.20;;;;;;;;;;4970527;28;20238;-69
2022/06/29 11:56:43;;;;;;;7.00;2.90;;;;;;;;;;4976651;28;20239;-68
2022/06/29 11:59:12;;;;;;;8.40;3.50;;;;;;;;;;4969114;28;20235;-69
2022/06/29 12:01:38;;;;;;;5.07;3.07;;;;;;;;;;4985924;28;20696;-69
2022/06/29 12:04:05;;;;;;;5.90;3.30;;;;;;;;;;4966714;28;20235;-69
2022/06/29 12:06:36;;;;;;;5.37;3.00;;;;;;;;;;4978728;28;20322;-68
2022/06/29 12:09:04;;;;;;;6.47;3.30;;;;;;;;;;4994655;28;20241;-68
2022/06/29 12:11:31;;;;;;;5.57;3.33;;;;;;;;;;4995395;28;20255;-67
2022/06/29 12:13:58;;;;;;;4.10;3.20;;;;;;;;;;4993110;28;21108;-68
2022/06/29 12:16:24;;;;;;;7.03;4.07;;;;;;;;;;4974020;28;220435;-68
2022/06/29 12:18:51;;;;;;;5.23;4.20;;;;;;;;;;4981969;28;20776;-67
2022/06/29 12:21:20;;;;;;;6.90;4.27;;;;;;;;;;4952857;28;246600;-67
2022/06/29 12:23:47;;;;;;;4.60;3.63;;;;;;;;;;4984579;28;20231;-68
2022/06/29 12:26:14;;;;;;;5.90;4.23;;;;;;;;;;4986118;28;20235;-70
2022/06/29 12:28:41;;;;;;;7.40;4.30;;;;;;;;;;4987366;28;20369;-67
2022/06/29 12:31:08;;;;;;;8.13;4.30;;;;;;;;;;4997230;28;20246;-68
2022/06/29 12:33:34;;;;;;;4.67;3.70;;;;;;;;;;4978086;28;20231;-68
2022/06/29 12:36:01;;;;;;;7.37;3.93;;;;;;;;;;4998103;28;20235;-68
2022/06/29 12:38:28;;;;;;;7.03;3.77;;;;;;;;;;4977864;28;20238;-69
2022/06/29 12:40:55;;;;;;;4.60;3.30;;;;;;;;;;4998291;28;20239;-74
2022/06/29 12:43:22;;;;;;;6.47;3.43;;;;;;;;;;4968734;28;20816;-71
2022/06/29 12:45:49;;;;;;;6.73;3.67;;;;;;;;;;4976525;28;215675;-68
2022/06/29 12:48:15;;;;;;;6.50;3.73;;;;;;;;;;4979408;28;20910;-69
2022/06/29 12:50:42;;;;;;;6.10;3.97;;;;;;;;;;4988715;28;221725;-72
2022/06/29 12:53:10;;;;;;;5.87;3.90;;;;;;;;;;4977918;28;20696;-68
2022/06/29 12:55:36;;;;;;;6.23;3.93;;;;;;;;;;4993980;28;20259;-68
2022/06/29 12:58:03;;;;;;;5.37;3.83;;;;;;;;;;4997892;28;20219;-68
2022/06/29 13:00:30;;;;;;;5.40;3.63;;;;;;;;;;4981396;28;20282;-69
2022/06/29 13:02:56;;;;;;;8.67;4.30;;;;;;;;;;4998695;28;20235;-69
2022/06/29 13:05:23;;;;;;;5.63;3.60;;;;;;;;;;4996896;28;20220;-68
2022/06/29 13:07:50;;;;;;;7.23;3.93;;;;;;;;;;4998234;28;20583;-69
2022/06/29 13:10:17;;;;;;;4.50;3.93;;;;;;;;;;4994774;28;25408;-66
2022/06/29 13:12:44;;;;;;;8.43;3.80;;;;;;;;;;4996733;28;20235;-70
2022/06/29 13:15:10;;;;;;;6.37;4.03;;;;;;;;;;4996389;28;20805;-69
2022/06/29 13:17:37;;;;;;;5.83;4.20;;;;;;;;;;4996750;28;20226;-70
2022/06/29 13:20:08;;;;;;;5.37;3.60;;;;;;;;;;4996961;28;20224;-65
2022/06/29 13:22:36;;;;;;;5.87;3.40;;;;;;;;;;4996211;28;20771;-68
2022/06/29 13:25:03;;;;;;;4.53;3.37;;;;;;;;;;5001662;28;21136;-71
2022/06/29 13:27:30;;;;;;;8.23;3.53;;;;;;;;;;5005328;28;20326;-67
2022/06/29 13:29:58;;;;;;;9.03;3.50;;;;;;;;;;5002960;28;20718;-67
2022/06/29 13:32:42;;;;;;;10.50;4.00;;;;;;;;;;4986141;28;20744;-67
2022/06/29 13:35:09;;;;;;;6.77;3.70;;;;;;;;;;4989624;28;20227;-67
2022/06/29 13:37:36;;;;;;;7.30;3.60;;;;;;;;;;5004175;28;20610;-67
2022/06/29 13:40:03;;;;;;;6.10;3.67;;;;;;;;;;5005566;28;20236;-67
2022/06/29 13:42:30;;;;;;;4.70;3.40;;;;;;;;;;5003750;28;20835;-67
2022/06/29 13:45:17;;;;;;;4.97;3.37;;;;;;;;;;5004858;28;20239;-67
2022/06/29 13:47:43;;;;;;;6.27;3.57;;;;;;;;;;5003492;28;20239;-67
2022/06/29 13:50:10;;;;;;;8.10;3.70;;;;;;;;;;5004992;28;20253;-67
2022/06/29 13:52:42;;;;;;;5.43;3.40;;;;;;;;;;5003532;28;20599;-67
2022/06/29 13:55:09;;;;;;;4.20;3.23;;;;;;;;;;5004464;28;20231;-67
2022/06/29 13:57:35;;;;;;;5.33;3.30;;;;;;;;;;4976824;28;230871;-70
2022/06/29 14:00:38;;;;;;;5.83;3.37;;;;;;;;;;4961726;28;20554;-70
2022/06/29 14:03:05;;;;;;;11.90;4.07;;;;;;;;;;4955097;28;217428;-68
2022/06/29 14:05:32;;;;;;;7.33;3.80;;;;;;;;;;4967043;28;20259;-73
2022/06/29 14:07:59;;;;;;;4.93;3.70;;;;;;;;;;4990745;28;20231;-71
2022/06/29 14:10:46;;;;;;;6.20;3.53;;;;;;;;;;4979793;28;20774;-70
2022/06/29 14:13:12;;;;;;;9.67;3.90;;;;;;;;;;4988559;28;231180;-71
2022/06/29 14:15:40;;;;;;;8.23;3.67;;;;;;;;;;4980611;28;20237;-72
2022/06/29 14:18:07;;;;;;;9.47;3.77;;;;;;;;;;4977474;28;37867;-72
2022/06/29 14:20:33;;;;;;;6.60;3.50;;;;;;;;;;4996147;28;20228;-72
2022/06/29 14:23:00;;;;;;;5.47;3.30;;;;;;;;;;4993448;28;42134;-72
2022/06/29 14:25:29;;;;;;;4.47;3.50;;;;;;;;;;4996749;28;20235;-73
2022/06/29 14:27:57;;;;;;;4.30;3.50;;;;;;;;;;4995429;28;20239;-70
2022/06/29 14:30:24;;;;;;;11.27;4.00;;;;;;;;;;4950961;28;221057;-70
2022/06/29 14:32:51;;;;;;;6.20;3.27;;;;;;;;;;4988820;28;20238;-71
2022/06/29 14:35:35;;;;;;;7.20;3.53;;;;;;;;;;4998460;28;20227;-71
2022/06/29 14:38:03;;;;;;;6.47;3.27;;;;;;;;;;5002339;28;20234;-71
2022/06/29 14:40:31;;;;;;;5.07;3.37;;;;;;;;;;5001935;28;20237;-71
2022/06/29 14:42:57;;;;;;;5.57;3.33;;;;;;;;;;5001889;28;20227;-71
2022/06/29 14:45:24;;;;;;;8.07;3.50;;;;;;;;;;5003848;28;20234;-70
2022/06/29 14:47:51;;;;;;;4.80;3.13;;;;;;;;;;5002244;28;20594;-70
2022/06/29 14:50:22;;;;;;;6.93;4.00;;;;;;;;;;5003897;28;20712;-70
2022/06/29 14:52:49;;;;;;;4.00;3.40;;;;;;;;;;4987250;28;20640;-71
2022/06/29 14:55:15;;;;;;;6.37;3.63;;;;;;;;;;4985621;28;20239;-70
2022/06/29 14:57:42;;;;;;;7.57;3.90;;;;;;;;;;5002128;28;20702;-71
2022/06/29 15:00:11;;;;;;;6.13;3.40;;;;;;;;;;5004026;28;20227;-70
2022/06/29 15:02:39;;;;;;;9.90;4.00;;;;;;;;;;5002131;28;20224;-71
2022/06/29 15:05:06;;;;;;;6.33;3.87;;;;;;;;;;5002165;28;20722;-69
2022/06/29 15:07:33;;;;;;;4.13;2.87;;;;;;;;;;4988651;28;20291;-70
2022/06/29 15:10:00;;;;;;;6.03;3.57;;;;;;;;;;5004080;28;20937;-71
2022/06/29 15:12:27;;;;;;;5.33;3.60;;;;;;;;;;5001651;28;20235;-68